Riva, MD (21140)

12:55 PM EDT on June 25, 2017 (GMT -0400)
MKANP | | Change Station

Elev 32 ft 38.94 °N, 76.57 °W | Updated 52 days ago

Partly Cloudy
Partly Cloudy
52.0 °F
Feels Like 52.0 °F
N
0.0
Wind Variable Wind from North

Today
High -- | Low -- °F
--% Chance of Precip.
Yesterday
High -- | Low -- °F
Precip. -- in
Pressure 30.02 in
Visibility 10.0 miles
Clouds Scattered Clouds 9000 ft
Dew Point 43 °F
Humidity 71%
Rainfall 0.00 in
Snow Depth Not available.
5:42 AM 8:35 PM
Waxing Crescent, 4% visible
METAR KNAK 251554Z AUTO 23003KT 10SM SCT090 26/17 A3002 RMK AO2 SLP166 T02610167
Pressure 30.02 in
Visibility 10.0 miles
Clouds Scattered Clouds 9000 ft
Dew Point 43 °F
Humidity 71%
Rainfall 0.00 in
Snow Depth Not available.
5:42 AM 8:35 PM
Waxing Crescent, 4% visible
METAR KNAK 251554Z AUTO 23003KT 10SM SCT090 26/17 A3002 RMK AO2 SLP166 T02610167

Get Severe Weather Alerts

Thanks for signing up!

Be on the lookout for a verification email in your inbox.

You'll start receiving the daily forecast at 6 AM.

×

10-Day Weather Forecast

Almanac

Astronomy

Jun. 25, 2017 Rise Set
Actual Time
Civil Twilight
Nautical Twilight
Astronomical Twilight
Moon
Length of Visible Light
Length of Day
Tomorrow will be .
, % of the Moon is Illuminated

Today's Extremes

State Highs State Lows

Community

WunderPhotos

Category 6

Welcome to Category 6. This is the collective home for Weather Underground's featured writeups by Dr. Jeff Masters (right), Bob Henson (left), Chris Burt, and other regular contributors.

Nearby

Air Quality

  Air Quality AQ Index Pollutant
Not available.

Snow Depth

Station Depth Elevation

Earthquake Activity

City Distance Mag. Time & Date
Minimum magnitude displayed is 2.5.

Coastal Water Temperatures

Place Temperature

Stations

Nearby Weather Stations

Station Location Temp. Windchill Dew Point Humidity Wind Precip. Elev Updated Type
                   

Watches & Warnings

There are currently no watches in effect.